createdAt,value
2022-08-08T00:01:16.854Z,1.38
2022-08-08T00:04:20.519Z,1.30
2022-08-08T00:07:12.518Z,1.30
2022-08-08T00:10:00.537Z,1.20
2022-08-08T00:12:33.927Z,1.27
2022-08-08T00:15:23.974Z,1.10
2022-08-08T00:18:06.580Z,1.23
2022-08-08T00:20:50.385Z,1.30
2022-08-08T00:23:28.540Z,1.10
2022-08-08T00:26:21.720Z,1.30
2022-08-08T00:29:01.533Z,1.30
2022-08-08T00:32:15.147Z,1.35
2022-08-08T00:35:00.061Z,1.23
2022-08-08T00:37:57.242Z,1.08
2022-08-08T00:41:12.009Z,1.05
2022-08-08T00:43:55.810Z,1.20
2022-08-08T00:46:22.656Z,1.38
2022-08-08T00:48:59.019Z,1.75
2022-08-08T00:51:46.492Z,1.40
2022-08-08T00:54:42.875Z,1.40
2022-08-08T00:57:36.058Z,1.20
2022-08-08T01:00:09.892Z,0.95
2022-08-08T01:04:00.165Z,1.23
2022-08-08T01:06:12.819Z,1.20
2022-08-08T01:08:58.061Z,1.55
2022-08-08T01:11:52.979Z,1.13
2022-08-08T01:14:53.589Z,1.08
2022-08-08T01:17:18.206Z,1.27
2022-08-08T01:20:03.742Z,1.20
2022-08-08T01:23:04.867Z,1.38
2022-08-08T01:26:11.524Z,1.50
2022-08-08T01:28:53.685Z,1.02
2022-08-08T01:32:14.783Z,1.40
2022-08-08T01:34:36.941Z,1.00
2022-08-08T01:37:57.355Z,1.35
2022-08-08T01:40:45.069Z,1.00
2022-08-08T01:43:24.863Z,0.80
2022-08-08T01:46:20.122Z,1.27
2022-08-08T01:48:59.574Z,0.90
2022-08-08T01:52:43.427Z,1.15
2022-08-08T01:55:44.960Z,1.20
2022-08-08T01:58:12.610Z,1.45
2022-08-08T02:00:48.422Z,1.02
2022-08-08T02:03:49.230Z,1.73
2022-08-08T02:06:43.505Z,0.90
2022-08-08T02:10:01.310Z,1.45
2022-08-08T02:12:22.857Z,1.30
2022-08-08T02:15:11.116Z,1.57
2022-08-08T02:18:00.371Z,1.30
2022-08-08T02:21:01.287Z,1.30
2022-08-08T02:23:37.184Z,1.63
2022-08-08T02:26:29.030Z,1.35
2022-08-08T02:29:41.627Z,1.38
2022-08-08T02:32:32.630Z,1.50
2022-08-08T02:35:10.825Z,1.23
2022-08-08T02:37:58.258Z,1.05
2022-08-08T02:40:55.695Z,1.20
2022-08-08T02:44:37.343Z,1.10
2022-08-08T02:46:45.555Z,1.40
2022-08-08T02:49:51.133Z,1.00
2022-08-08T02:52:40.457Z,0.98
2022-08-08T02:55:31.842Z,1.40
2022-08-08T02:58:28.589Z,1.10
2022-08-08T03:01:39.726Z,1.27
2022-08-08T03:05:05.416Z,1.48
2022-08-08T03:08:18.530Z,1.17
2022-08-08T03:11:47.527Z,1.35
2022-08-08T03:16:01.434Z,1.35
2022-08-08T03:17:59.601Z,1.00
2022-08-08T03:20:51.629Z,1.33
2022-08-08T03:23:20.783Z,1.10
2022-08-08T03:25:50.356Z,1.30
2022-08-08T03:28:45.356Z,1.00
2022-08-08T03:32:05.923Z,0.93
2022-08-08T03:34:29.848Z,1.15
2022-08-08T03:36:57.034Z,1.55
2022-08-08T03:39:24.255Z,1.10
2022-08-08T03:42:26.181Z,1.63
2022-08-08T03:44:38.613Z,1.20
2022-08-08T03:47:07.142Z,1.25
2022-08-08T03:50:00.163Z,1.63
2022-08-08T03:52:30.747Z,1.10
2022-08-08T03:55:09.782Z,1.10
2022-08-08T03:58:33.403Z,1.33
2022-08-08T04:00:26.975Z,1.10
2022-08-08T04:03:01.507Z,1.05
2022-08-08T04:05:30.872Z,1.05
2022-08-08T04:08:00.703Z,1.02
2022-08-08T04:10:32.002Z,1.25
2022-08-08T04:13:03.755Z,1.60
2022-08-08T04:15:54.788Z,1.15
2022-08-08T04:18:31.181Z,1.45
2022-08-08T04:20:57.885Z,1.17
2022-08-08T04:23:24.418Z,1.17
2022-08-08T04:26:04.059Z,1.25
2022-08-08T04:28:40.506Z,1.33
2022-08-08T04:31:09.402Z,1.25
2022-08-08T04:33:41.652Z,1.35
2022-08-08T04:36:08.849Z,1.25
2022-08-08T04:38:35.443Z,1.48
2022-08-08T04:41:02.169Z,1.33
2022-08-08T04:43:31.744Z,1.48
2022-08-08T04:46:11.785Z,1.40
2022-08-08T04:48:41.182Z,1.95
2022-08-08T04:51:09.200Z,1.40
2022-08-08T04:54:30.283Z,1.20
2022-08-08T04:56:22.665Z,1.50
2022-08-08T04:58:50.551Z,1.27
2022-08-08T05:01:17.678Z,1.20
2022-08-08T05:04:10.326Z,1.35
2022-08-08T05:06:31.228Z,1.33
2022-08-08T05:09:02.957Z,1.58
2022-08-08T05:11:38.844Z,1.55
2022-08-08T05:14:06.994Z,1.27
2022-08-08T05:16:55.602Z,1.83
2022-08-08T05:20:10.531Z,1.50
2022-08-08T05:22:08.621Z,1.48
2022-08-08T05:24:37.727Z,1.35
2022-08-08T05:27:05.987Z,2.30
2022-08-08T05:29:35.967Z,3.30
2022-08-08T05:32:07.498Z,1.83
2022-08-08T05:34:41.499Z,1.38
2022-08-08T05:37:18.666Z,1.67
2022-08-08T05:39:56.338Z,2.13
2022-08-08T05:42:44.245Z,1.33
2022-08-08T05:45:25.532Z,1.67
2022-08-08T05:48:01.546Z,0.98
2022-08-08T05:50:36.297Z,1.25
2022-08-08T05:53:53.752Z,1.30
2022-08-08T05:56:11.457Z,1.20
2022-08-08T05:58:57.842Z,1.40
2022-08-08T06:01:50.499Z,1.60
2022-08-08T06:04:22.840Z,1.40
2022-08-08T06:06:53.105Z,1.20
2022-08-08T06:09:58.813Z,1.30
2022-08-08T06:12:14.330Z,1.70
2022-08-08T06:14:48.916Z,2.45
2022-08-08T06:17:19.180Z,1.50
2022-08-08T06:19:48.459Z,1.00
2022-08-08T06:25:02.120Z,1.70
2022-08-08T06:27:48.367Z,1.60
2022-08-08T06:30:19.791Z,1.10
2022-08-08T06:32:58.190Z,1.10
2022-08-08T06:36:06.902Z,1.10
2022-08-08T06:38:27.513Z,1.33
2022-08-08T06:41:04.083Z,0.88
2022-08-08T06:43:35.722Z,1.02
2022-08-08T06:46:04.289Z,1.02
2022-08-08T06:48:36.267Z,1.02
2022-08-08T06:51:07.692Z,1.15
2022-08-08T06:53:39.016Z,1.60
2022-08-08T06:56:07.900Z,1.27
2022-08-08T06:58:35.256Z,1.35
2022-08-08T07:01:24.313Z,1.60
2022-08-08T07:04:38.810Z,0.88
2022-08-08T07:06:53.862Z,1.55
2022-08-08T07:09:21.849Z,0.90
2022-08-08T07:11:57.706Z,1.30
2022-08-08T07:14:39.387Z,0.98
2022-08-08T07:17:19.033Z,0.95
2022-08-08T07:20:04.321Z,1.30
2022-08-08T07:22:42.499Z,1.15
2022-08-08T07:25:14.513Z,1.63
2022-08-08T07:28:02.112Z,1.88
2022-08-08T07:30:30.789Z,1.58
2022-08-08T07:32:59.432Z,1.65
2022-08-08T07:35:29.046Z,1.45
2022-08-08T07:38:04.695Z,1.23
2022-08-08T07:43:09.549Z,1.40
2022-08-08T07:46:04.886Z,2.10
2022-08-08T07:48:24.107Z,1.73
2022-08-08T07:50:52.564Z,1.65
2022-08-08T07:54:00.935Z,1.50
2022-08-08T07:56:44.848Z,0.82
2022-08-08T07:59:15.634Z,1.30
2022-08-08T08:02:37.148Z,1.10
2022-08-08T08:04:49.367Z,1.25
2022-08-08T08:07:26.091Z,1.10
2022-08-08T08:10:02.723Z,1.15
2022-08-08T08:12:35.319Z,1.08
2022-08-08T08:15:11.908Z,1.20
2022-08-08T08:17:48.242Z,0.90
2022-08-08T08:20:18.136Z,1.20
2022-08-08T08:22:44.740Z,1.10
2022-08-08T08:25:16.730Z,1.40
2022-08-08T08:27:46.568Z,1.00
2022-08-08T08:30:14.164Z,1.13
2022-08-08T08:32:41.200Z,0.95
2022-08-08T08:35:18.276Z,1.00
2022-08-08T08:38:15.045Z,1.17
2022-08-08T08:40:35.174Z,1.23
2022-08-08T08:43:02.786Z,1.30
2022-08-08T08:45:31.774Z,1.52
2022-08-08T08:48:01.266Z,1.10
2022-08-08T08:50:32.559Z,1.55
2022-08-08T08:53:54.090Z,1.17
2022-08-08T08:55:54.124Z,1.33
2022-08-08T08:58:46.931Z,1.10
2022-08-08T09:01:20.249Z,1.48
2022-08-08T09:03:51.660Z,1.42
2022-08-08T09:06:28.253Z,1.45
2022-08-08T09:09:26.672Z,2.00
2022-08-08T09:12:02.289Z,1.30
2022-08-08T09:14:35.069Z,1.05
2022-08-08T09:17:09.714Z,1.30
2022-08-08T09:22:01.959Z,1.02
2022-08-08T09:22:27.839Z,1.67
2022-08-08T09:24:56.739Z,1.25
2022-08-08T09:27:42.097Z,1.20
2022-08-08T09:30:22.001Z,1.33
2022-08-08T09:33:11.984Z,2.50
2022-08-08T09:35:49.059Z,1.20
2022-08-08T09:38:53.476Z,0.90
2022-08-08T09:42:14.928Z,1.35
2022-08-08T09:44:40.690Z,1.10
2022-08-08T09:48:02.662Z,1.48
2022-08-08T09:50:03.423Z,1.33
2022-08-08T09:52:56.245Z,1.20
2022-08-08T09:55:51.624Z,1.23
2022-08-08T09:58:20.264Z,0.75
2022-08-08T10:00:57.403Z,1.27
2022-08-08T10:03:31.382Z,0.93
2022-08-08T10:05:58.936Z,1.42
2022-08-08T10:08:26.222Z,1.45
2022-08-08T10:10:58.784Z,1.20
2022-08-08T10:13:35.837Z,1.20
2022-08-08T10:18:34.669Z,1.40
2022-08-08T10:21:24.760Z,1.30
2022-08-08T10:23:58.114Z,1.20
2022-08-08T10:26:51.911Z,1.27
2022-08-08T10:29:24.864Z,1.27
2022-08-08T10:32:16.145Z,1.20
2022-08-08T10:34:57.172Z,1.27
2022-08-08T10:37:34.501Z,1.05
2022-08-08T10:40:17.009Z,1.30
2022-08-08T10:42:47.032Z,1.25
2022-08-08T10:45:16.066Z,1.52
2022-08-08T10:47:48.634Z,2.20
2022-08-08T10:50:23.749Z,1.50
2022-08-08T10:52:51.382Z,1.33
2022-08-08T10:55:39.866Z,1.27
2022-08-08T10:58:08.787Z,1.70
2022-08-08T11:03:52.884Z,1.73
2022-08-08T11:06:12.549Z,1.65
2022-08-08T11:08:53.545Z,1.70
2022-08-08T11:11:32.592Z,2.17
2022-08-08T11:14:12.316Z,1.50
2022-08-08T11:16:46.862Z,1.90
2022-08-08T11:19:15.540Z,2.10
2022-08-08T11:21:55.338Z,1.95
2022-08-08T11:24:25.731Z,2.03
2022-08-08T11:26:57.222Z,1.85
2022-08-08T11:29:29.375Z,1.90
2022-08-08T11:32:14.946Z,2.10
2022-08-08T11:35:29.474Z,2.22
2022-08-08T11:38:35.724Z,2.03
2022-08-08T11:40:22.613Z,1.70
2022-08-08T11:42:55.519Z,3.20
2022-08-08T11:45:23.210Z,1.88
2022-08-08T11:48:02.753Z,2.35
2022-08-08T11:50:34.056Z,2.13
2022-08-08T11:53:05.933Z,2.90
2022-08-08T11:55:36.147Z,2.10
2022-08-08T11:58:14.750Z,1.88
2022-08-08T12:00:52.145Z,2.10
2022-08-08T12:03:21.194Z,2.20
2022-08-08T12:05:48.892Z,2.28
2022-08-08T12:08:16.820Z,2.50
2022-08-08T12:10:51.085Z,2.63
2022-08-08T12:13:33.442Z,2.30
2022-08-08T12:16:10.881Z,2.58
2022-08-08T12:19:11.054Z,2.00
2022-08-08T12:22:00.685Z,2.10
2022-08-08T12:24:27.935Z,2.55
2022-08-08T12:26:58.464Z,2.05
2022-08-08T12:29:42.054Z,1.98
2022-08-08T12:32:20.160Z,2.03
2022-08-08T12:35:13.707Z,2.05
2022-08-08T12:38:01.478Z,2.70
2022-08-08T12:40:54.083Z,2.38
2022-08-08T12:43:31.953Z,2.05
2022-08-08T12:46:02.952Z,2.70
2022-08-08T12:48:36.871Z,2.50
2022-08-08T12:51:07.875Z,1.80
2022-08-08T12:53:54.740Z,2.50
2022-08-08T12:56:35.983Z,2.03
2022-08-08T12:59:15.451Z,2.45
2022-08-08T13:01:42.534Z,2.05
2022-08-08T13:04:19.363Z,1.95
2022-08-08T13:07:02.952Z,1.83
2022-08-08T13:10:05.704Z,2.50
2022-08-08T13:12:46.584Z,2.08
2022-08-08T13:15:19.424Z,2.65
2022-08-08T13:18:08.297Z,3.53
2022-08-08T13:20:44.986Z,2.42
2022-08-08T13:23:46.362Z,2.33
2022-08-08T13:26:15.794Z,1.98
2022-08-08T13:28:45.535Z,2.25
2022-08-08T13:31:16.610Z,1.80
2022-08-08T13:33:46.431Z,2.30
2022-08-08T13:36:14.468Z,2.53
2022-08-08T13:38:44.741Z,2.25
2022-08-08T13:41:16.697Z,2.85
2022-08-08T13:43:47.697Z,2.63
2022-08-08T13:46:27.371Z,2.75
2022-08-08T13:52:07.639Z,2.67
2022-08-08T13:54:44.068Z,2.42
2022-08-08T13:57:15.822Z,2.40
2022-08-08T13:59:48.610Z,2.60
2022-08-08T14:02:32.958Z,2.10
2022-08-08T14:05:08.951Z,2.63
2022-08-08T14:07:49.779Z,2.05
2022-08-08T14:10:32.995Z,2.17
2022-08-08T14:13:31.100Z,2.58
2022-08-08T14:16:03.892Z,2.20
2022-08-08T14:18:35.700Z,2.42
2022-08-08T14:21:08.077Z,2.42
2022-08-08T14:24:04.077Z,4.25
2022-08-08T14:29:01.544Z,2.47
2022-08-08T14:32:06.156Z,2.58
2022-08-08T14:34:19.482Z,3.00
2022-08-08T14:36:53.371Z,3.00
2022-08-08T14:39:24.802Z,2.42
2022-08-08T14:42:03.289Z,3.00
2022-08-08T14:44:35.577Z,3.00
2022-08-08T14:47:20.839Z,7.88
2022-08-08T14:50:05.959Z,2.60
2022-08-08T14:53:03.434Z,2.65
2022-08-08T14:55:41.499Z,2.92
2022-08-08T14:58:11.958Z,4.32
2022-08-08T15:00:44.230Z,5.00
2022-08-08T15:03:15.498Z,3.70
2022-08-08T15:05:53.550Z,3.15
2022-08-08T15:08:34.391Z,2.47
2022-08-08T15:11:11.305Z,2.63
2022-08-08T15:14:02.938Z,2.72
2022-08-08T15:16:27.887Z,3.97
2022-08-08T15:18:55.031Z,4.88
2022-08-08T15:21:21.748Z,3.10
2022-08-08T15:23:51.025Z,2.35
2022-08-08T15:26:21.418Z,2.90
2022-08-08T15:28:54.139Z,3.15
2022-08-08T15:31:55.583Z,2.20
2022-08-08T15:34:18.812Z,3.03
2022-08-08T15:36:56.333Z,2.85
2022-08-08T15:39:22.952Z,3.05
2022-08-08T15:41:49.614Z,2.83
2022-08-08T15:44:17.933Z,8.10
2022-08-08T15:46:45.299Z,4.38
2022-08-08T15:49:17.177Z,4.13
2022-08-08T15:51:43.781Z,2.78
2022-08-08T15:54:37.378Z,3.13
2022-08-08T15:56:57.544Z,3.45
2022-08-08T16:00:10.880Z,4.20
2022-08-08T16:02:13.405Z,3.47
2022-08-08T16:04:41.861Z,3.83
2022-08-08T16:07:08.599Z,3.33
2022-08-08T16:13:03.453Z,3.20
2022-08-08T16:13:09.020Z,3.08
2022-08-08T16:15:08.768Z,4.60
2022-08-08T16:18:06.595Z,3.80
2022-08-08T16:20:29.349Z,3.97
2022-08-08T16:22:56.018Z,6.88
2022-08-08T16:25:22.986Z,5.25
2022-08-08T16:27:58.052Z,6.50
2022-08-08T16:30:36.086Z,3.63
2022-08-08T16:33:03.529Z,9.13
2022-08-08T16:35:32.658Z,3.58
2022-08-08T16:38:00.089Z,2.85
2022-08-08T16:40:29.210Z,3.50
2022-08-08T16:42:55.989Z,3.03
2022-08-08T16:46:37.295Z,2.92
2022-08-08T16:48:09.442Z,3.97
2022-08-08T16:50:39.941Z,2.90
2022-08-08T16:55:04.473Z,2.80
2022-08-08T16:55:57.910Z,7.40
2022-08-08T16:58:32.506Z,4.43
2022-08-08T17:01:05.651Z,3.63
2022-08-08T17:03:57.911Z,2.75
2022-08-08T17:06:37.304Z,2.90
2022-08-08T17:09:06.243Z,2.80
2022-08-08T17:11:47.949Z,2.65
2022-08-08T17:14:19.944Z,2.85
2022-08-08T17:16:58.115Z,2.75
2022-08-08T17:19:29.819Z,2.50
2022-08-08T17:21:57.415Z,2.67
2022-08-08T17:24:27.960Z,4.00
2022-08-08T17:26:57.883Z,3.45
2022-08-08T17:29:25.586Z,2.25
2022-08-08T17:31:52.204Z,3.10
2022-08-08T17:34:48.250Z,2.30
2022-08-08T17:37:09.307Z,2.63
2022-08-08T17:40:04.867Z,3.10
2022-08-08T17:42:24.674Z,2.67
2022-08-08T17:44:52.665Z,2.72
2022-08-08T17:47:37.684Z,3.13
2022-08-08T17:50:07.526Z,2.60
2022-08-08T17:52:35.383Z,2.70
2022-08-08T17:56:04.662Z,2.72
2022-08-08T17:57:52.674Z,2.38
2022-08-08T18:00:26.196Z,3.47
2022-08-08T18:03:09.219Z,3.47
2022-08-08T18:05:47.875Z,2.25
2022-08-08T18:08:37.924Z,2.53
2022-08-08T18:11:08.351Z,3.92
2022-08-08T18:13:41.352Z,4.40
2022-08-08T18:16:08.769Z,4.05
2022-08-08T18:18:42.468Z,3.85
2022-08-08T18:21:10.712Z,4.15
2022-08-08T18:23:55.857Z,7.60
2022-08-08T18:26:22.900Z,9.45
2022-08-08T18:28:54.246Z,4.35
2022-08-08T18:31:21.920Z,3.40
2022-08-08T18:34:11.563Z,3.30
2022-08-08T18:36:36.027Z,2.90
2022-08-08T18:39:02.947Z,2.88
2022-08-08T18:41:51.243Z,2.88
2022-08-08T18:44:16.033Z,6.55
2022-08-08T18:46:57.078Z,6.53
2022-08-08T18:49:32.581Z,4.20
2022-08-08T18:52:08.829Z,4.00
2022-08-08T18:54:45.414Z,2.53
2022-08-08T18:57:26.422Z,2.38
2022-08-08T18:59:53.159Z,5.32
2022-08-08T19:02:28.557Z,6.25
2022-08-08T19:04:56.220Z,6.28
2022-08-08T19:07:30.075Z,3.40
2022-08-08T19:10:14.690Z,2.65
2022-08-08T19:12:44.764Z,3.42
2022-08-08T19:15:23.614Z,2.90
2022-08-08T19:18:33.304Z,2.20
2022-08-08T19:20:39.177Z,2.67
2022-08-08T19:23:07.459Z,2.78
2022-08-08T19:26:20.482Z,2.85
2022-08-08T19:28:23.337Z,3.50
2022-08-08T19:31:04.088Z,2.95
2022-08-08T19:33:51.916Z,2.70
2022-08-08T19:36:27.401Z,2.40
2022-08-08T19:38:55.624Z,2.55
2022-08-08T19:41:26.310Z,2.80
2022-08-08T19:44:03.356Z,5.55
2022-08-08T19:46:33.670Z,3.47
2022-08-08T19:49:01.361Z,3.05
2022-08-08T19:51:34.879Z,2.45
2022-08-08T19:54:08.190Z,3.65
2022-08-08T19:56:39.948Z,3.00
2022-08-08T19:59:08.866Z,3.80
2022-08-08T20:02:01.168Z,3.05
2022-08-08T20:04:23.878Z,2.83
2022-08-08T20:06:50.719Z,3.33
2022-08-08T20:09:22.838Z,3.63
2022-08-08T20:11:49.961Z,3.45
2022-08-08T20:14:35.420Z,3.67
2022-08-08T20:17:03.230Z,2.97
2022-08-08T20:19:33.488Z,3.13
2022-08-08T20:22:20.689Z,3.00
2022-08-08T20:24:52.300Z,2.92
2022-08-08T20:27:23.148Z,3.00
2022-08-08T20:30:00.386Z,2.65
2022-08-08T20:32:28.364Z,2.97
2022-08-08T20:35:01.443Z,3.10
2022-08-08T20:37:47.238Z,3.65
2022-08-08T20:40:17.169Z,5.53
2022-08-08T20:42:54.827Z,3.20
2022-08-08T20:45:54.671Z,3.40
2022-08-08T20:48:09.551Z,3.22
2022-08-08T20:50:36.520Z,2.95
2022-08-08T20:53:04.171Z,2.72
2022-08-08T20:55:42.809Z,3.47
2022-08-08T21:00:49.678Z,3.40
2022-08-08T21:03:17.052Z,4.22
2022-08-08T21:05:58.921Z,4.68
2022-08-08T21:08:37.191Z,4.65
2022-08-08T21:11:13.439Z,5.22
2022-08-08T21:13:41.303Z,5.03
2022-08-08T21:16:17.952Z,5.35
2022-08-08T21:18:57.696Z,3.75
2022-08-08T21:21:39.653Z,3.10
2022-08-08T21:24:18.140Z,3.20
2022-08-08T21:26:53.757Z,2.90
2022-08-08T21:29:21.544Z,2.95
2022-08-08T21:31:58.434Z,3.03
2022-08-08T21:34:30.057Z,2.60
2022-08-08T21:36:58.407Z,2.90
2022-08-08T21:39:41.434Z,3.47
2022-08-08T21:42:11.855Z,2.70
2022-08-08T21:44:38.622Z,3.10
2022-08-08T21:48:07.087Z,2.83
2022-08-08T21:50:11.866Z,2.92
2022-08-08T21:54:32.649Z,2.85
2022-08-08T21:56:26.056Z,3.05
2022-08-08T21:58:13.599Z,3.83
2022-08-08T22:00:41.116Z,4.63
2022-08-08T22:03:07.846Z,4.07
2022-08-08T22:05:41.425Z,3.50
2022-08-08T22:08:08.647Z,3.45
2022-08-08T22:10:35.647Z,3.15
2022-08-08T22:13:17.533Z,2.92
2022-08-08T22:15:59.371Z,2.95
2022-08-08T22:18:31.435Z,2.50
2022-08-08T22:21:13.957Z,2.85
2022-08-08T22:23:50.817Z,2.80
2022-08-08T22:26:29.949Z,4.32
2022-08-08T22:29:15.076Z,4.38
2022-08-08T22:32:01.830Z,2.78
2022-08-08T22:34:31.307Z,3.92
2022-08-08T22:36:57.856Z,3.38
2022-08-08T22:39:28.341Z,2.57
2022-08-08T22:42:14.073Z,2.97
2022-08-08T22:44:50.817Z,3.55
2022-08-08T22:47:18.175Z,4.03
2022-08-08T22:49:44.926Z,3.95
2022-08-08T22:52:25.784Z,3.60
2022-08-08T22:54:58.792Z,3.60
2022-08-08T22:57:43.939Z,3.35
2022-08-08T23:00:13.445Z,2.55
2022-08-08T23:05:13.549Z,2.85
2022-08-08T23:07:57.687Z,2.70
2022-08-08T23:10:26.919Z,3.53
2022-08-08T23:12:54.556Z,2.60
2022-08-08T23:16:37.679Z,3.22
2022-08-08T23:18:11.884Z,3.08
2022-08-08T23:20:43.932Z,2.50
2022-08-08T23:23:12.297Z,2.42
2022-08-08T23:25:47.933Z,2.45
2022-08-08T23:28:15.913Z,2.55
2022-08-08T23:30:44.500Z,2.25
2022-08-08T23:33:13.703Z,2.67
2022-08-08T23:36:06.965Z,2.55
2022-08-08T23:38:33.290Z,3.00
2022-08-08T23:40:59.815Z,2.92
2022-08-08T23:43:31.633Z,2.67
2022-08-08T23:49:02.871Z,2.30
2022-08-08T23:49:05.069Z,2.78
2022-08-08T23:51:42.021Z,2.53
2022-08-08T23:54:43.007Z,2.92
2022-08-08T23:57:05.133Z,2.75
2022-08-08T23:59:55.589Z,2.38
